Thursday, September 20, 2018, 10:08 PM EDT
Back to Local

KMVL, Morrisville Stowe State Airport

Location: Morrisville, VT, United States Lat: 44.533
Local Time: 10:08 PM EDT ( 2:08 GMT) Lon: -72.617
Time Zone: US/Eastern Elev: 731 ft

Show me the last for .
Show Decoded

2018-09-20 21:54 METAR KMVL 210154Z AUTO 00000KT 10SM FEW027 11/11 A3026 RMK AO2 SLP250 T01110111
                 =
2018-09-20 20:54 METAR KMVL 210054Z AUTO 17004KT 10SM CLR 12/12 A3026 RMK AO2 SLP252 T01220122 =
2018-09-20 19:54 METAR KMVL 202354Z AUTO 00000KT 10SM CLR 14/13 A3025 RMK AO2 SLP246 T01390128
                 10178 20133 50005 =
2018-09-20 18:54 METAR KMVL 202254Z AUTO 00000KT 10SM FEW100 14/13 A3025 RMK AO2 SLP247 T01440133
                 =
2018-09-20 17:54 METAR KMVL 202154Z AUTO 00000KT 10SM FEW037 16/14 A3024 RMK AO2 SLP242 T01610139
                 =
2018-09-20 16:54 METAR KMVL 202054Z AUTO 00000KT 10SM BKN110 17/11 A3024 RMK AO2 SLP241 T01670111
                 50000 =
2018-09-20 15:54 METAR KMVL 201954Z AUTO 00000KT 10SM OVC110 17/11 A3025 RMK AO2 SLP245 T01720106
                 =
2018-09-20 14:54 METAR KMVL 201854Z AUTO 00000KT 10SM FEW034 17/11 A3023 RMK AO2 SLP239 T01720111
                 =
2018-09-20 14:04 METAR KMVL 201804Z AUTO 00000KT 10SM BKN030 17/11 A3024 RMK AO2 T01670111 =
2018-09-20 13:54 METAR KMVL 201754Z AUTO 00000KT 10SM BKN028 17/11 A3024 RMK AO2 SLP240 T01670111
                 10167 20128 58005 =
2018-09-20 13:45 METAR KMVL 201745Z AUTO 36004KT 10SM BKN028 17/11 A3024 RMK AO2 T01670111 =
2018-09-20 12:54 METAR KMVL 201654Z AUTO 18003KT 10SM CLR 17/12 A3024 RMK AO2 SLP243 T01670117 =
2018-09-20 11:54 METAR KMVL 201554Z AUTO 00000KT 10SM BKN038 BKN120 16/11 A3025 RMK AO2 SLP246
                 T01610111 =
2018-09-20 10:54 METAR KMVL 201454Z AUTO 00000KT 10SM FEW040 15/12 A3025 RMK AO2 SLP247 T01500122
                 50000 =
2018-09-20 09:54 METAR KMVL 201354Z AUTO 00000KT 10SM OVC041 14/12 A3028 RMK AO2 SLP254 T01440117
                 =
2018-09-20 08:54 METAR KMVL 201254Z AUTO 00000KT 10SM OVC038 13/11 A3025 RMK AO2 SLP246 T01330111
                 =
2018-09-20 08:14 METAR KMVL 201214Z AUTO 00000KT 10SM SCT014 OVC037 13/12 A3025 RMK AO2 T01280122
                 =
2018-09-20 07:54 METAR KMVL 201154Z AUTO 00000KT 10SM OVC014 13/12 A3025 RMK AO2 SLP246 T01280117
                 10128 20117 53029 =
2018-09-20 06:54 METAR KMVL 201054Z AUTO 02003KT 10SM BKN014 OVC037 12/12 A3021 RMK AO2 SLP233
                 T01170117 =
2018-09-20 05:54 METAR KMVL 200954Z AUTO 00000KT 10SM SCT026 OVC033 12/12 A3017 RMK AO2 SLP219
                 T01170117 =
2018-09-20 04:54 METAR KMVL 200854Z AUTO 00000KT 10SM FEW026 OVC034 12/12 A3016 RMK AO2 SLP216
                 T01220117 58000 =
2018-09-20 03:54 METAR KMVL 200754Z AUTO 00000KT 10SM SCT022 BKN033 12/12 A3016 RMK AO2 SLP216
                 T01220117 =
2018-09-20 02:54 METAR KMVL 200654Z AUTO 00000KT 10SM FEW014 OVC023 12/11 A3017 RMK AO2 SLP217
                 T01170111 =
2018-09-20 01:54 METAR KMVL 200554Z AUTO 00000KT 10SM OVC022 13/12 A3016 RMK AO2 SLP215 T01280117
                 10133 20128 51003 =
2018-09-20 01:02 METAR KMVL 200502Z AUTO 02003KT 10SM BKN016 OVC022 13/11 A3017 RMK AO2 T01280111
                 =
2018-09-20 00:54 METAR KMVL 200454Z AUTO 35003KT 10SM BKN014 OVC022 13/11 A3016 RMK AO2 SLP215
                 T01280111 401830128 =
2018-09-20 00:39 METAR KMVL 200439Z AUTO 00000KT 10SM BKN014 OVC022 13/11 A3016 RMK AO2 T01280111
                 =
2018-09-19 23:54 METAR KMVL 200354Z AUTO 36003KT 10SM SCT016 OVC023 13/11 A3016 RMK AO2 SLP215
                 T01280111 =
2018-09-19 22:54 METAR KMVL 200254Z AUTO 03003KT 10SM OVC017 13/11 A3015 RMK AO2 SLP213 T01280111
                 51008 =

Support USWX by starting your Amazon purchase here.